createdAt,value
2022-10-06T00:00:09.703Z,15.74
2022-10-06T00:02:36.467Z,14.71
2022-10-06T00:05:03.809Z,15.24
2022-10-06T00:07:30.701Z,15.46
2022-10-06T00:09:57.409Z,15.35
2022-10-06T00:12:24.497Z,15.06
2022-10-06T00:14:51.225Z,12.57
2022-10-06T00:17:18.260Z,13.39
2022-10-06T00:19:45.463Z,14.61
2022-10-06T00:22:12.143Z,15.06
2022-10-06T00:24:39.085Z,15.50
2022-10-06T00:27:05.775Z,15.12
2022-10-06T00:29:32.477Z,15.36
2022-10-06T00:31:59.366Z,15.50
2022-10-06T00:34:27.035Z,14.05
2022-10-06T00:36:53.930Z,13.57
2022-10-06T00:39:20.646Z,14.21
2022-10-06T00:41:47.366Z,14.67
2022-10-06T00:44:14.231Z,15.22
2022-10-06T00:46:53.937Z,14.38
2022-10-06T00:49:23.965Z,14.05
2022-10-06T00:52:06.939Z,13.62
2022-10-06T00:54:36.136Z,14.76
2022-10-06T00:57:04.594Z,13.56
2022-10-06T00:59:32.460Z,14.60
2022-10-06T01:02:04.913Z,14.41
2022-10-06T01:04:33.913Z,14.73
2022-10-06T01:07:02.410Z,14.03
2022-10-06T01:09:39.207Z,15.22
2022-10-06T01:12:08.429Z,14.76
2022-10-06T01:14:37.931Z,14.73
2022-10-06T01:17:11.751Z,14.01
2022-10-06T01:19:47.624Z,11.93
2022-10-06T01:22:17.642Z,12.23
2022-10-06T01:24:47.646Z,12.99
2022-10-06T01:27:16.100Z,11.48
2022-10-06T01:29:43.139Z,12.84
2022-10-06T01:32:10.155Z,13.26
2022-10-06T01:34:36.917Z,14.05
2022-10-06T01:37:04.892Z,13.88
2022-10-06T01:39:32.847Z,13.26
2022-10-06T01:41:59.544Z,13.71
2022-10-06T01:44:26.436Z,14.22
2022-10-06T01:46:53.494Z,14.28
2022-10-06T01:49:20.288Z,14.04
2022-10-06T01:51:47.968Z,13.60
2022-10-06T01:54:15.165Z,12.94
2022-10-06T01:56:42.552Z,14.08
2022-10-06T01:59:09.539Z,14.54
2022-10-06T02:01:36.313Z,13.97
2022-10-06T02:04:03.287Z,13.17
2022-10-06T02:06:30.470Z,14.53
2022-10-06T02:08:58.596Z,13.67
2022-10-06T02:11:25.295Z,13.49
2022-10-06T02:13:53.139Z,13.96
2022-10-06T02:16:21.210Z,14.20
2022-10-06T02:18:48.111Z,13.77
2022-10-06T02:21:20.402Z,13.77
2022-10-06T02:23:48.763Z,14.10
2022-10-06T02:26:17.582Z,13.90
2022-10-06T02:28:46.890Z,12.80
2022-10-06T02:31:18.500Z,13.99
2022-10-06T02:33:45.614Z,13.65
2022-10-06T02:36:14.321Z,12.99
2022-10-06T02:38:41.675Z,14.66
2022-10-06T02:41:10.794Z,14.14
2022-10-06T02:43:38.383Z,13.75
2022-10-06T02:46:08.196Z,13.45
2022-10-06T02:48:35.458Z,14.13
2022-10-06T02:51:09.566Z,14.07
2022-10-06T02:53:37.832Z,13.77
2022-10-06T02:56:11.013Z,13.31
2022-10-06T02:58:40.156Z,13.87
2022-10-06T03:01:13.046Z,13.22
2022-10-06T03:03:40.927Z,13.06
2022-10-06T03:06:37.035Z,12.29
2022-10-06T03:09:15.813Z,13.52
2022-10-06T03:11:43.925Z,13.43
2022-10-06T03:14:20.566Z,13.31
2022-10-06T03:16:51.596Z,14.03
2022-10-06T03:19:24.808Z,14.02
2022-10-06T03:21:51.514Z,13.87
2022-10-06T03:24:18.420Z,12.34
2022-10-06T03:26:50.061Z,13.62
2022-10-06T03:29:18.877Z,13.50
2022-10-06T03:31:51.106Z,13.47
2022-10-06T03:34:18.392Z,13.94
2022-10-06T03:36:45.643Z,12.91
2022-10-06T03:39:13.835Z,13.35
2022-10-06T03:41:41.171Z,13.55
2022-10-06T03:44:09.659Z,13.86
2022-10-06T03:46:39.236Z,12.40
2022-10-06T03:49:07.831Z,12.23
2022-10-06T03:51:38.807Z,13.28
2022-10-06T03:54:10.858Z,13.47
2022-10-06T03:56:41.209Z,13.14
2022-10-06T03:59:13.006Z,13.35
2022-10-06T04:01:44.545Z,13.88
2022-10-06T04:04:14.389Z,14.62
2022-10-06T04:06:44.423Z,13.15
2022-10-06T04:09:15.900Z,13.27
2022-10-06T04:11:44.607Z,12.86
2022-10-06T04:14:15.264Z,13.87
2022-10-06T04:16:45.538Z,13.62
2022-10-06T04:19:15.463Z,13.49
2022-10-06T04:21:48.227Z,13.76
2022-10-06T04:24:19.376Z,11.87
2022-10-06T04:26:52.444Z,13.59
2022-10-06T04:29:20.743Z,14.44
2022-10-06T04:31:56.899Z,13.45
2022-10-06T04:34:35.768Z,14.02
2022-10-06T04:37:04.097Z,13.29
2022-10-06T04:39:31.385Z,13.74
2022-10-06T04:41:58.319Z,11.37
2022-10-06T04:44:29.096Z,12.63
2022-10-06T04:47:00.504Z,13.29
2022-10-06T04:49:27.506Z,13.35
2022-10-06T04:51:55.232Z,12.79
2022-10-06T04:54:22.145Z,13.43
2022-10-06T04:56:54.185Z,12.91
2022-10-06T04:59:43.497Z,13.11
2022-10-06T05:02:11.949Z,12.87
2022-10-06T05:04:39.690Z,13.61
2022-10-06T05:07:06.826Z,12.98
2022-10-06T05:09:34.103Z,12.95
2022-10-06T05:12:02.064Z,12.21
2022-10-06T05:14:29.055Z,10.27
2022-10-06T05:16:56.387Z,12.86
2022-10-06T05:19:24.310Z,14.43
2022-10-06T05:21:52.122Z,13.55
2022-10-06T05:24:22.859Z,13.62
2022-10-06T05:26:49.926Z,13.55
2022-10-06T05:29:16.994Z,13.96
2022-10-06T05:31:45.447Z,11.23
2022-10-06T05:34:14.223Z,12.99
2022-10-06T05:36:40.917Z,14.43
2022-10-06T05:39:10.131Z,13.99
2022-10-06T05:41:45.232Z,13.64
2022-10-06T05:44:13.616Z,13.49
2022-10-06T05:46:42.062Z,12.94
2022-10-06T05:49:10.781Z,13.88
2022-10-06T05:51:41.957Z,13.66
2022-10-06T05:54:14.491Z,12.35
2022-10-06T05:56:41.729Z,15.09
2022-10-06T05:59:08.483Z,16.23
2022-10-06T06:01:39.947Z,13.49
2022-10-06T06:04:14.150Z,14.10
2022-10-06T06:06:49.121Z,16.13
2022-10-06T06:09:21.692Z,16.15
2022-10-06T06:11:53.055Z,16.51
2022-10-06T06:14:45.584Z,17.07
2022-10-06T06:17:19.823Z,18.30
2022-10-06T06:19:47.025Z,18.16
2022-10-06T06:22:15.318Z,17.82
2022-10-06T06:24:43.908Z,18.34
2022-10-06T06:27:11.255Z,18.06
2022-10-06T06:29:40.213Z,16.21
2022-10-06T06:32:09.695Z,14.64
2022-10-06T06:34:37.147Z,16.05
2022-10-06T06:37:08.497Z,15.99
2022-10-06T06:39:37.240Z,15.09
2022-10-06T06:42:08.479Z,14.75
2022-10-06T06:44:51.020Z,16.03
2022-10-06T06:47:39.880Z,15.69
2022-10-06T06:50:10.452Z,17.05
2022-10-06T06:52:39.080Z,15.79
2022-10-06T06:55:08.222Z,17.68
2022-10-06T06:57:35.208Z,16.45
2022-10-06T07:00:08.357Z,15.67
2022-10-06T07:02:37.323Z,16.60
2022-10-06T07:05:05.533Z,18.22
2022-10-06T07:07:32.631Z,15.43
2022-10-06T07:10:00.193Z,15.99
2022-10-06T07:12:26.947Z,16.00
2022-10-06T07:15:16.918Z,14.50
2022-10-06T07:18:06.590Z,17.45
2022-10-06T07:20:52.314Z,18.82
2022-10-06T07:23:39.698Z,17.41
2022-10-06T07:26:11.423Z,18.12
2022-10-06T07:28:38.551Z,18.99
2022-10-06T07:31:06.819Z,18.99
2022-10-06T07:33:34.181Z,18.93
2022-10-06T07:36:04.915Z,20.28
2022-10-06T07:38:33.012Z,21.00
2022-10-06T07:41:19.367Z,19.51
2022-10-06T07:43:53.972Z,21.54
2022-10-06T07:46:21.930Z,20.18
2022-10-06T07:49:08.533Z,19.46
2022-10-06T07:51:36.679Z,22.06
2022-10-06T07:54:04.093Z,21.58
2022-10-06T07:56:50.522Z,21.75
2022-10-06T07:59:20.827Z,20.27
2022-10-06T08:01:49.280Z,23.56
2022-10-06T08:04:16.222Z,21.91
2022-10-06T08:06:43.257Z,20.44
2022-10-06T08:09:10.002Z,23.03
2022-10-06T08:11:36.907Z,22.49
2022-10-06T08:14:03.991Z,24.01
2022-10-06T08:16:30.902Z,24.02
2022-10-06T08:18:59.360Z,20.98
2022-10-06T08:21:31.317Z,22.32
2022-10-06T08:23:59.409Z,21.93
2022-10-06T08:26:27.886Z,21.08
2022-10-06T08:29:00.609Z,21.55
2022-10-06T08:31:27.901Z,23.11
2022-10-06T08:33:56.804Z,22.19
2022-10-06T08:36:31.035Z,24.18
2022-10-06T08:39:00.193Z,23.90
2022-10-06T08:41:32.899Z,25.00
2022-10-06T08:44:06.358Z,24.05
2022-10-06T08:46:41.518Z,23.63
2022-10-06T08:49:18.389Z,25.33
2022-10-06T08:52:04.816Z,25.37
2022-10-06T08:54:45.686Z,24.38
2022-10-06T08:57:19.762Z,22.37
2022-10-06T08:59:53.753Z,26.31
2022-10-06T09:02:30.073Z,24.08
2022-10-06T09:05:03.069Z,26.14
2022-10-06T09:07:53.302Z,26.18
2022-10-06T09:10:52.364Z,26.05
2022-10-06T09:13:47.292Z,26.76
2022-10-06T09:16:28.239Z,25.41
2022-10-06T09:19:15.771Z,27.26
2022-10-06T09:21:54.022Z,27.90
2022-10-06T09:24:30.149Z,26.11
2022-10-06T09:26:59.171Z,25.04
2022-10-06T09:29:31.843Z,25.24
2022-10-06T09:31:59.341Z,23.28
2022-10-06T09:34:45.624Z,27.17
2022-10-06T09:37:13.796Z,25.92
2022-10-06T09:39:45.684Z,26.28
2022-10-06T09:42:18.670Z,26.15
2022-10-06T09:44:51.490Z,27.08
2022-10-06T09:47:35.169Z,27.22
2022-10-06T09:50:05.234Z,27.98
2022-10-06T09:52:32.061Z,28.34
2022-10-06T09:55:17.851Z,28.53
2022-10-06T09:57:50.286Z,25.99
2022-10-06T10:00:29.682Z,28.13
2022-10-06T10:03:09.212Z,28.03
2022-10-06T10:05:47.947Z,27.92
2022-10-06T10:08:20.745Z,27.65
2022-10-06T10:10:49.610Z,27.44
2022-10-06T10:13:24.656Z,28.05
2022-10-06T10:15:57.580Z,27.02
2022-10-06T10:18:29.035Z,26.51
2022-10-06T10:21:08.574Z,27.07
2022-10-06T10:23:43.930Z,28.88
2022-10-06T10:26:32.525Z,27.73
2022-10-06T10:29:15.162Z,26.63
2022-10-06T10:32:02.530Z,29.33
2022-10-06T10:34:45.449Z,29.53
2022-10-06T10:37:15.019Z,28.36
2022-10-06T10:39:49.609Z,27.49
2022-10-06T10:42:45.545Z,26.31
2022-10-06T10:45:24.682Z,28.91
2022-10-06T10:47:53.595Z,26.34
2022-10-06T10:50:27.129Z,28.54
2022-10-06T10:53:16.078Z,28.63
2022-10-06T10:55:48.787Z,31.25
2022-10-06T10:58:33.673Z,28.13
2022-10-06T11:01:15.991Z,27.48
2022-10-06T11:03:43.461Z,27.75
2022-10-06T11:06:48.870Z,23.01
2022-10-06T11:09:26.591Z,26.55
2022-10-06T11:12:06.262Z,25.18
2022-10-06T11:14:42.422Z,27.17
2022-10-06T11:17:27.414Z,28.60
2022-10-06T11:20:15.837Z,25.97
2022-10-06T11:23:08.943Z,30.73
2022-10-06T11:26:03.867Z,28.74
2022-10-06T11:28:53.874Z,28.79
2022-10-06T11:31:33.067Z,29.45
2022-10-06T11:34:02.142Z,31.13
2022-10-06T11:36:38.307Z,29.60
2022-10-06T11:39:15.333Z,30.73
2022-10-06T11:41:52.260Z,27.78
2022-10-06T11:44:41.446Z,28.61
2022-10-06T11:47:28.179Z,26.65
2022-10-06T11:50:01.367Z,29.28
2022-10-06T11:52:28.420Z,26.08
2022-10-06T11:55:06.295Z,29.09
2022-10-06T11:57:33.900Z,28.46
2022-10-06T12:00:03.308Z,31.05
2022-10-06T12:02:41.390Z,28.21
2022-10-06T12:08:35.622Z,27.54
2022-10-06T12:11:03.185Z,28.78
2022-10-06T12:14:49.513Z,29.88
2022-10-06T12:19:39.890Z,30.33
2022-10-06T12:22:25.536Z,28.61
2022-10-06T12:24:52.809Z,28.21
2022-10-06T12:27:28.231Z,31.68
2022-10-06T12:30:19.835Z,29.51
2022-10-06T12:32:55.920Z,29.92
2022-10-06T12:35:37.124Z,32.44
2022-10-06T12:38:06.177Z,28.34
2022-10-06T12:40:43.065Z,27.19
2022-10-06T12:43:12.573Z,24.90
2022-10-06T12:45:59.005Z,27.36
2022-10-06T12:48:38.009Z,27.26
2022-10-06T12:54:21.720Z,26.17
2022-10-06T12:56:58.888Z,27.00
2022-10-06T12:59:35.113Z,27.97
2022-10-06T13:02:08.302Z,30.07
2022-10-06T13:04:45.814Z,27.95
2022-10-06T13:07:59.116Z,27.13
2022-10-06T13:10:27.319Z,26.74
2022-10-06T13:12:55.485Z,27.60
2022-10-06T13:15:24.350Z,27.39
2022-10-06T13:18:11.934Z,26.76
2022-10-06T13:20:49.318Z,27.01
2022-10-06T13:23:28.069Z,28.02
2022-10-06T13:26:01.095Z,28.57
2022-10-06T13:28:45.056Z,27.77
2022-10-06T13:31:17.490Z,28.91
2022-10-06T13:33:48.589Z,28.31
2022-10-06T13:36:15.570Z,28.45
2022-10-06T13:38:42.895Z,28.76
2022-10-06T13:41:28.235Z,28.43
2022-10-06T13:44:18.827Z,27.74
2022-10-06T13:46:52.403Z,26.67
2022-10-06T13:49:31.332Z,24.16
2022-10-06T13:52:02.946Z,26.81
2022-10-06T13:54:51.558Z,26.63
2022-10-06T13:57:33.989Z,27.31
2022-10-06T14:00:20.761Z,29.03
2022-10-06T14:02:57.098Z,30.72
2022-10-06T14:05:40.896Z,28.19
2022-10-06T14:08:10.862Z,28.86
2022-10-06T14:10:40.949Z,27.77
2022-10-06T14:13:15.141Z,28.04
2022-10-06T14:15:48.127Z,28.69
2022-10-06T14:18:20.747Z,27.00
2022-10-06T14:20:49.951Z,25.58
2022-10-06T14:23:48.705Z,26.53
2022-10-06T14:26:18.014Z,24.50
2022-10-06T14:28:47.840Z,26.90
2022-10-06T14:31:15.413Z,27.11
2022-10-06T14:33:43.029Z,26.61
2022-10-06T14:36:16.956Z,28.28
2022-10-06T14:38:46.961Z,26.96
2022-10-06T14:41:18.218Z,27.50
2022-10-06T14:43:47.453Z,25.08
2022-10-06T14:46:15.574Z,27.52
2022-10-06T14:48:42.847Z,25.31
2022-10-06T14:51:10.563Z,25.46
2022-10-06T14:53:39.723Z,26.59
2022-10-06T14:56:11.537Z,26.53
2022-10-06T14:58:40.520Z,25.33
2022-10-06T15:01:07.980Z,23.81
2022-10-06T15:03:35.752Z,23.28
2022-10-06T15:06:23.270Z,24.25
2022-10-06T15:08:52.193Z,25.55
2022-10-06T15:11:20.506Z,25.78
2022-10-06T15:13:48.490Z,24.44
2022-10-06T15:16:16.330Z,26.31
2022-10-06T15:18:43.435Z,25.67
2022-10-06T15:21:11.769Z,25.34
2022-10-06T15:23:39.669Z,24.94
2022-10-06T15:26:25.134Z,25.12
2022-10-06T15:29:00.849Z,25.65
2022-10-06T15:31:30.304Z,25.16
2022-10-06T15:33:58.299Z,24.32
2022-10-06T15:36:25.818Z,25.94
2022-10-06T15:38:52.538Z,26.01
2022-10-06T15:41:19.618Z,25.40
2022-10-06T15:43:55.688Z,25.00
2022-10-06T15:46:26.289Z,25.50
2022-10-06T15:48:55.616Z,25.08
2022-10-06T15:51:22.637Z,25.74
2022-10-06T15:53:50.513Z,24.86
2022-10-06T15:56:17.719Z,24.06
2022-10-06T15:58:45.208Z,24.00
2022-10-06T16:01:25.733Z,24.40
2022-10-06T16:03:53.513Z,23.66
2022-10-06T16:06:43.218Z,23.56
2022-10-06T16:09:12.218Z,23.51
2022-10-06T16:11:39.767Z,24.24
2022-10-06T16:14:07.939Z,23.90
2022-10-06T16:16:38.824Z,24.73
2022-10-06T16:19:08.630Z,24.21
2022-10-06T16:21:35.375Z,23.07
2022-10-06T16:24:02.612Z,24.09
2022-10-06T16:26:30.292Z,24.33
2022-10-06T16:28:57.491Z,23.26
2022-10-06T16:31:24.991Z,23.73
2022-10-06T16:33:52.406Z,24.45
2022-10-06T16:36:19.667Z,24.39
2022-10-06T16:38:50.986Z,23.94
2022-10-06T16:41:18.518Z,24.07
2022-10-06T16:43:47.298Z,23.34
2022-10-06T16:46:16.605Z,23.45
2022-10-06T16:48:45.755Z,22.97
2022-10-06T16:51:18.934Z,22.69
2022-10-06T16:53:51.245Z,23.81
2022-10-06T16:56:21.184Z,23.16
2022-10-06T16:58:53.798Z,23.48
2022-10-06T17:01:23.829Z,22.61
2022-10-06T17:04:21.403Z,23.04
2022-10-06T17:06:51.154Z,23.39
2022-10-06T17:09:21.173Z,23.23
2022-10-06T17:11:50.569Z,23.28
2022-10-06T17:14:17.990Z,23.36
2022-10-06T17:16:46.746Z,22.69
2022-10-06T17:19:15.554Z,21.58
2022-10-06T17:21:46.632Z,22.74
2022-10-06T17:24:15.291Z,21.61
2022-10-06T17:26:44.281Z,21.79
2022-10-06T17:29:21.281Z,21.84
2022-10-06T17:31:51.043Z,22.25
2022-10-06T17:34:21.933Z,22.38
2022-10-06T17:36:52.088Z,22.05
2022-10-06T17:39:23.091Z,21.92
2022-10-06T17:41:52.942Z,22.03
2022-10-06T17:44:23.361Z,21.39
2022-10-06T17:46:52.755Z,20.45
2022-10-06T17:49:21.611Z,21.25
2022-10-06T17:51:50.255Z,20.33
2022-10-06T17:54:20.231Z,20.49
2022-10-06T17:56:49.348Z,20.51
2022-10-06T17:59:19.370Z,20.11
2022-10-06T18:01:46.235Z,20.30
2022-10-06T18:04:17.538Z,21.15
2022-10-06T18:06:46.173Z,20.24
2022-10-06T18:09:14.710Z,20.35
2022-10-06T18:11:44.048Z,20.06
2022-10-06T18:14:13.773Z,19.83
2022-10-06T18:16:45.385Z,20.24
2022-10-06T18:19:18.595Z,20.57
2022-10-06T18:21:47.865Z,20.69
2022-10-06T18:24:17.486Z,19.57
2022-10-06T18:26:48.816Z,20.26
2022-10-06T18:29:19.220Z,20.76
2022-10-06T18:31:49.650Z,20.77
2022-10-06T18:37:04.785Z,20.20
2022-10-06T18:39:32.100Z,20.25
2022-10-06T18:42:03.674Z,19.78
2022-10-06T18:44:48.742Z,19.02
2022-10-06T18:47:34.538Z,20.44
2022-10-06T18:50:01.339Z,20.04
2022-10-06T18:52:28.279Z,19.83
2022-10-06T18:54:55.888Z,20.23
2022-10-06T18:57:27.627Z,20.27
2022-10-06T18:59:55.158Z,20.38
2022-10-06T19:02:22.359Z,20.17
2022-10-06T19:04:49.242Z,20.24
2022-10-06T19:07:15.961Z,20.03
2022-10-06T19:09:46.474Z,19.62
2022-10-06T19:12:14.314Z,19.49
2022-10-06T19:14:47.442Z,19.62
2022-10-06T19:17:15.497Z,19.55
2022-10-06T19:19:51.769Z,19.42
2022-10-06T19:22:24.690Z,20.13
2022-10-06T19:24:52.301Z,18.90
2022-10-06T19:27:24.279Z,18.74
2022-10-06T19:29:54.665Z,19.46
2022-10-06T19:32:26.444Z,19.18
2022-10-06T19:34:57.990Z,20.28
2022-10-06T19:37:27.462Z,19.68
2022-10-06T19:39:54.241Z,18.65
2022-10-06T19:42:40.535Z,19.16
2022-10-06T19:45:09.558Z,19.28
2022-10-06T19:47:36.688Z,18.82
2022-10-06T19:50:10.319Z,18.91
2022-10-06T19:52:38.605Z,18.55
2022-10-06T19:55:05.628Z,19.75
2022-10-06T19:57:33.755Z,18.92
2022-10-06T20:00:01.091Z,18.73
2022-10-06T20:02:29.143Z,19.17
2022-10-06T20:04:57.278Z,19.38
2022-10-06T20:07:27.595Z,19.15
2022-10-06T20:09:55.034Z,17.42
2022-10-06T20:12:25.181Z,18.63
2022-10-06T20:14:57.574Z,18.94
2022-10-06T20:17:24.660Z,18.94
2022-10-06T20:19:56.667Z,19.08
2022-10-06T20:22:25.682Z,19.22
2022-10-06T20:24:52.425Z,19.48
2022-10-06T20:27:19.594Z,18.86
2022-10-06T20:29:46.579Z,18.60
2022-10-06T20:32:14.276Z,18.34
2022-10-06T20:34:42.448Z,18.85
2022-10-06T20:37:09.235Z,18.81
2022-10-06T20:39:54.676Z,19.02
2022-10-06T20:42:22.107Z,19.08
2022-10-06T20:44:49.066Z,18.60
2022-10-06T20:47:16.760Z,19.38
2022-10-06T20:49:44.744Z,18.37
2022-10-06T20:52:15.319Z,18.88
2022-10-06T20:54:42.835Z,16.61
2022-10-06T20:57:09.943Z,17.76
2022-10-06T20:59:37.898Z,18.11
2022-10-06T21:02:06.136Z,15.89
2022-10-06T21:04:34.599Z,17.17
2022-10-06T21:07:06.043Z,17.94
2022-10-06T21:09:33.072Z,18.42
2022-10-06T21:12:00.660Z,17.61
2022-10-06T21:14:27.397Z,18.19
2022-10-06T21:16:54.575Z,18.01
2022-10-06T21:19:21.401Z,17.72
2022-10-06T21:21:50.729Z,18.38
2022-10-06T21:24:17.909Z,18.25
2022-10-06T21:26:45.316Z,17.77
2022-10-06T21:29:14.140Z,18.68
2022-10-06T21:31:42.211Z,18.42
2022-10-06T21:34:09.977Z,17.42
2022-10-06T21:36:36.721Z,17.39
2022-10-06T21:39:06.582Z,17.42
2022-10-06T21:41:38.488Z,17.87
2022-10-06T21:44:09.841Z,17.62
2022-10-06T21:46:42.848Z,18.65
2022-10-06T21:49:15.717Z,17.87
2022-10-06T21:51:45.758Z,17.40
2022-10-06T21:54:13.368Z,16.99
2022-10-06T21:56:40.454Z,17.43
2022-10-06T21:59:07.798Z,16.74
2022-10-06T22:01:37.836Z,17.89
2022-10-06T22:04:05.670Z,18.52
2022-10-06T22:06:34.710Z,18.36
2022-10-06T22:09:02.056Z,19.25
2022-10-06T22:11:38.514Z,18.93
2022-10-06T22:14:07.573Z,19.11
2022-10-06T22:16:36.374Z,19.04
2022-10-06T22:19:05.264Z,18.13
2022-10-06T22:21:34.884Z,19.19
2022-10-06T22:24:06.817Z,17.94
2022-10-06T22:26:37.469Z,18.10
2022-10-06T22:29:06.972Z,18.58
2022-10-06T22:31:35.029Z,18.39
2022-10-06T22:34:06.064Z,18.63
2022-10-06T22:36:33.774Z,18.94
2022-10-06T22:39:01.325Z,18.59
2022-10-06T22:41:28.810Z,16.51
2022-10-06T22:43:57.964Z,17.47
2022-10-06T22:46:30.533Z,18.44
2022-10-06T22:48:58.357Z,18.51
2022-10-06T22:51:25.588Z,17.90
2022-10-06T22:53:58.490Z,16.67
2022-10-06T22:56:30.321Z,17.38
2022-10-06T22:59:00.016Z,17.05
2022-10-06T23:01:28.784Z,17.78
2022-10-06T23:03:56.076Z,17.21
2022-10-06T23:06:24.472Z,17.71
2022-10-06T23:08:51.197Z,18.18
2022-10-06T23:11:20.516Z,17.11
2022-10-06T23:13:48.498Z,17.08
2022-10-06T23:16:17.743Z,17.76
2022-10-06T23:18:45.280Z,17.51
2022-10-06T23:21:21.541Z,17.86
2022-10-06T23:23:53.781Z,17.71
2022-10-06T23:26:21.842Z,18.00
2022-10-06T23:28:54.775Z,18.07
2022-10-06T23:31:21.656Z,17.67
2022-10-06T23:33:49.117Z,17.34
2022-10-06T23:36:16.148Z,17.79
2022-10-06T23:38:44.725Z,17.45
2022-10-06T23:41:12.153Z,17.00
2022-10-06T23:43:39.038Z,16.83
2022-10-06T23:46:05.929Z,16.66
2022-10-06T23:48:32.916Z,17.13
2022-10-06T23:51:03.864Z,17.61
2022-10-06T23:53:31.975Z,17.58
2022-10-06T23:55:59.002Z,16.32
2022-10-06T23:58:27.329Z,14.55
